Time;durP1;ratioP1;P1;durP2;ratioP2;P2;SDS_P1;SDS_P2;PMS_P1;PMS_P2;Temp;Humidity;BMP_temperature;BMP_pressure;BME280_temperature;BME280_humidity;BME280_pressure;Samples;Min_cycle;Max_cycle;Signal;HPM_P1;HPM_P2
2022/08/21 00:01:42;;;;;;;17.87;11.90;;;20.00;99.90;;;;;;4929435;29;20197;-84
2022/08/21 00:04:10;;;;;;;15.03;11.87;;;20.00;1.00;;;;;;4928479;29;20193;-84
2022/08/21 00:06:38;;;;;;;13.50;10.17;;;20.00;99.90;;;;;;4929941;29;20190;-84
2022/08/21 00:09:08;;;;;;;13.07;10.50;;;20.00;99.90;;;;;;4925992;29;20640;-82
2022/08/21 00:11:36;;;;;;;15.33;11.50;;;20.00;99.90;;;;;;4931074;29;20193;-84
2022/08/21 00:14:04;;;;;;;13.20;10.60;;;19.90;1.00;;;;;;4933146;29;20193;-83
2022/08/21 00:16:32;;;;;;;15.63;11.43;;;19.90;1.00;;;;;;4930389;29;20213;-84
2022/08/21 00:19:00;;;;;;;14.60;9.93;;;19.90;1.00;;;;;;4921555;29;20253;-84
2022/08/21 00:21:27;;;;;;;13.00;9.33;;;19.90;99.90;;;;;;4933260;29;20204;-84
2022/08/21 00:23:55;;;;;;;14.23;11.23;;;19.90;1.00;;;;;;4926074;29;20221;-88
2022/08/21 00:26:22;;;;;;;15.17;12.00;;;19.90;99.90;;;;;;4926660;29;20217;-86
2022/08/21 00:28:49;;;;;;;15.00;12.23;;;19.90;69.30;;;;;;4928308;29;20185;-86
2022/08/21 00:31:17;;;;;;;14.27;11.67;;;19.90;1.00;;;;;;4922563;29;20216;-84
2022/08/21 00:33:44;;;;;;;13.60;10.13;;;19.90;1.00;;;;;;4917914;29;20198;-84
2022/08/21 00:36:13;;;;;;;15.17;11.90;;;19.90;99.90;;;;;;4929096;29;20640;-85
2022/08/21 00:38:40;;;;;;;15.10;11.37;;;19.90;1.00;;;;;;4926723;29;20214;-85
2022/08/21 00:41:09;;;;;;;17.53;13.17;;;19.90;1.00;;;;;;4926060;29;20201;-85
2022/08/21 00:43:39;;;;;;;14.53;10.47;;;19.90;1.00;;;;;;4929865;29;20193;-85
2022/08/21 00:46:07;;;;;;;14.03;10.23;;;19.90;1.00;;;;;;4923053;29;20612;-84
2022/08/21 00:48:34;;;;;;;12.90;9.87;;;19.80;1.00;;;;;;4933355;29;20188;-87
2022/08/21 00:51:06;;;;;;;15.57;10.37;;;19.90;1.00;;;;;;4928070;29;20652;-85
2022/08/21 00:53:38;;;;;;;15.97;10.13;;;19.80;1.00;;;;;;4924277;29;20272;-84
2022/08/21 00:56:07;;;;;;;14.63;10.60;;;19.80;99.90;;;;;;4924190;29;20237;-85
2022/08/21 00:58:36;;;;;;;13.13;10.23;;;19.90;99.90;;;;;;4930448;29;20197;-87
2022/08/21 01:01:06;;;;;;;14.07;11.43;;;19.90;99.90;;;;;;4924612;29;20267;-84
2022/08/21 01:03:35;;;;;;;14.03;10.60;;;19.80;57.60;;;;;;4933641;29;20265;-86
2022/08/21 01:06:03;;;;;;;16.33;12.20;;;19.90;99.90;;;;;;4926158;29;20280;-84
2022/08/21 01:08:30;;;;;;;14.57;10.33;;;19.90;99.90;;;;;;4923518;29;20190;-84
2022/08/21 01:11:00;;;;;;;16.53;11.17;;;19.90;1.00;;;;;;4927059;29;20194;-87
2022/08/21 01:13:30;;;;;;;17.63;12.80;;;19.90;99.90;;;;;;4929186;29;20193;-84
2022/08/21 01:16:00;;;;;;;14.10;11.27;;;19.80;99.90;;;;;;4930919;29;20206;-84
2022/08/21 01:18:28;;;;;;;13.30;11.07;;;19.80;99.90;;;;;;4924166;29;20280;-85
2022/08/21 01:21:16;;;;;;;16.17;11.90;;;19.80;99.90;;;;;;4923968;29;20198;-87
2022/08/21 01:23:53;;;;;;;14.47;10.90;;;19.80;99.90;;;;;;4924492;29;20250;-84
2022/08/21 01:26:24;;;;;;;14.67;11.23;;;19.80;99.90;;;;;;4919595;29;20313;-84
2022/08/21 01:28:58;;;;;;;12.60;10.17;;;19.80;99.90;;;;;;4919340;29;20272;-84
2022/08/21 01:31:27;;;;;;;13.73;11.20;;;19.80;1.00;;;;;;4931753;29;20189;-84
2022/08/21 01:33:55;;;;;;;13.03;10.70;;;19.80;1.00;;;;;;4936298;29;20186;-84
2022/08/21 01:36:24;;;;;;;13.07;10.60;;;19.70;1.00;;;;;;4918235;29;20201;-84
2022/08/21 01:38:51;;;;;;;15.87;12.20;;;19.70;1.00;;;;;;4917290;29;20244;-85
2022/08/21 01:41:19;;;;;;;12.70;10.47;;;19.70;1.00;;;;;;4917033;29;20197;-84
2022/08/21 01:43:46;;;;;;;13.20;11.17;;;19.70;1.00;;;;;;4916909;29;20671;-84
2022/08/21 01:46:14;;;;;;;14.57;11.00;;;19.70;99.90;;;;;;4923940;29;20224;-87
2022/08/21 01:48:42;;;;;;;15.17;11.10;;;19.60;1.00;;;;;;4921685;29;20198;-85
2022/08/21 01:51:09;;;;;;;13.20;10.63;;;19.60;1.00;;;;;;4922757;29;20240;-83
2022/08/21 01:53:38;;;;;;;13.53;10.83;;;19.60;99.90;;;;;;4924274;29;20197;-84
2022/08/21 01:56:08;;;;;;;13.47;11.00;;;19.60;1.00;;;;;;4925732;29;20192;-83
2022/08/21 01:58:35;;;;;;;13.57;11.07;;;19.50;99.90;;;;;;4932728;29;20202;-85
2022/08/21 02:01:04;;;;;;;12.83;10.47;;;19.50;99.90;;;;;;4920575;29;20193;-82
2022/08/21 02:03:31;;;;;;;13.07;10.70;;;19.50;99.90;;;;;;4926408;29;20308;-84
2022/08/21 02:05:58;;;;;;;14.30;11.20;;;19.40;99.90;;;;;;4916594;29;20556;-83
2022/08/21 02:08:26;;;;;;;15.13;11.03;;;19.40;99.90;;;;;;4917235;29;20545;-84
2022/08/21 02:10:54;;;;;;;13.40;9.70;;;19.40;1.00;;;;;;4916744;29;20359;-84
2022/08/21 02:13:21;;;;;;;13.70;11.07;;;19.40;42.00;;;;;;4917052;29;20198;-87
2022/08/21 02:15:48;;;;;;;13.23;10.63;;;19.30;1.00;;;;;;4916625;29;20201;-84
2022/08/21 02:18:15;;;;;;;14.07;10.80;;;19.30;1.00;;;;;;4916259;29;20194;-86
2022/08/21 02:20:46;;;;;;;13.80;10.60;;;19.30;99.90;;;;;;4916725;29;20197;-85
2022/08/21 02:23:14;;;;;;;13.67;11.20;;;19.20;99.90;;;;;;4916256;29;20198;-88
2022/08/21 02:25:43;;;;;;;13.73;10.93;;;19.20;99.90;;;;;;4926821;29;20621;-84
2022/08/21 02:28:13;;;;;;;16.47;11.40;;;19.10;99.90;;;;;;4919482;29;20295;-83
2022/08/21 02:30:44;;;;;;;13.43;10.60;;;19.10;99.90;;;;;;4938567;29;20207;-87
2022/08/21 02:33:11;;;;;;;13.67;9.83;;;19.10;99.90;;;;;;4942592;29;20580;-87
2022/08/21 02:35:41;;;;;;;12.77;9.57;;;19.10;56.50;;;;;;4935200;29;20674;-85
2022/08/21 02:38:12;;;;;;;15.20;11.67;;;19.00;99.90;;;;;;4935542;29;20316;-83
2022/08/21 02:40:40;;;;;;;13.93;10.13;;;19.00;50.30;;;;;;4939204;29;20266;-86
2022/08/21 02:43:08;;;;;;;23.20;11.33;;;19.00;5.40;;;;;;4944403;29;20193;-84
2022/08/21 02:45:38;;;;;;;13.40;10.67;;;19.00;99.90;;;;;;4935007;29;20216;-87
2022/08/21 02:48:07;;;;;;;13.33;10.43;;;18.90;39.20;;;;;;4943598;29;20192;-84
2022/08/21 02:50:36;;;;;;;13.53;9.83;;;18.90;87.50;;;;;;4953038;29;20529;-83
2022/08/21 02:53:05;;;;;;;13.23;9.87;;;18.90;1.00;;;;;;4935604;29;20248;-83
2022/08/21 02:55:34;;;;;;;12.83;9.23;;;18.90;1.00;;;;;;4935154;29;20224;-86
2022/08/21 02:58:03;;;;;;;13.57;10.00;;;18.80;1.00;;;;;;4934761;29;20185;-87
2022/08/21 03:00:31;;;;;;;12.90;9.53;;;18.80;1.00;;;;;;4935187;29;20196;-83
2022/08/21 03:03:00;;;;;;;14.17;10.00;;;18.80;1.00;;;;;;4935460;29;20189;-84
2022/08/21 03:05:31;;;;;;;12.87;9.13;;;18.80;99.90;;;;;;4947198;29;20275;-88
2022/08/21 03:08:00;;;;;;;16.37;10.73;;;18.80;99.90;;;;;;4936215;29;20213;-84
2022/08/21 03:10:27;;;;;;;13.03;9.47;;;18.80;33.40;;;;;;4946337;29;20197;-86
2022/08/21 03:12:55;;;;;;;13.43;9.67;;;18.70;1.00;;;;;;4937461;29;20220;-87
2022/08/21 03:15:24;;;;;;;12.90;9.63;;;18.70;1.00;;;;;;4944173;29;20224;-84
2022/08/21 03:17:54;;;;;;;13.33;10.07;;;18.60;1.00;;;;;;4938552;29;20530;-82
2022/08/21 03:20:26;;;;;;;12.77;9.10;;;18.70;1.00;;;;;;4937508;29;20617;-87
2022/08/21 03:22:54;;;;;;;14.53;11.50;;;18.60;1.00;;;;;;4940009;29;20603;-84
2022/08/21 03:25:22;;;;;;;12.97;9.43;;;18.70;1.00;;;;;;4934793;29;20217;-83
2022/08/21 03:27:50;;;;;;;13.03;9.47;;;18.60;1.00;;;;;;4935124;29;20193;-86
2022/08/21 03:30:18;;;;;;;13.03;9.53;;;18.60;1.00;;;;;;4933765;29;20549;-85
2022/08/21 03:32:46;;;;;;;13.73;9.67;;;18.60;1.00;;;;;;4943724;29;20204;-84
2022/08/21 03:35:13;;;;;;;13.43;9.63;;;18.60;1.00;;;;;;4939480;29;20197;-82
2022/08/21 03:37:41;;;;;;;12.77;9.33;;;18.50;1.00;;;;;;4934793;29;20758;-85
2022/08/21 03:40:12;;;;;;;13.40;11.10;;;18.50;1.00;;;;;;4927676;29;20192;-84
2022/08/21 03:42:39;;;;;;;15.43;9.73;;;18.50;1.00;;;;;;4922253;29;20189;-84
2022/08/21 03:45:07;;;;;;;12.80;9.67;;;18.50;1.00;;;;;;4934344;29;20197;-84
2022/08/21 03:47:34;;;;;;;13.57;10.13;;;18.50;1.00;;;;;;4934849;29;20546;-83
2022/08/21 03:50:02;;;;;;;13.87;9.93;;;18.50;1.00;;;;;;4935195;29;20644;-83
2022/08/21 03:52:29;;;;;;;13.63;10.13;;;18.50;1.00;;;;;;4935099;29;20193;-87
2022/08/21 03:54:57;;;;;;;19.87;10.57;;;18.50;1.00;;;;;;4934539;29;20196;-85
2022/08/21 03:57:24;;;;;;;13.20;9.77;;;18.40;1.00;;;;;;4934519;29;20200;-84
2022/08/21 03:59:51;;;;;;;14.67;10.63;;;18.40;1.00;;;;;;4934736;29;20193;-84
2022/08/21 04:02:22;;;;;;;13.13;10.07;;;18.40;1.00;;;;;;4934307;29;20197;-84
2022/08/21 04:04:49;;;;;;;13.07;9.57;;;18.40;1.00;;;;;;4928264;29;20198;-83
2022/08/21 04:07:17;;;;;;;13.17;9.57;;;18.40;1.00;;;;;;4927927;29;20618;-84
2022/08/21 04:09:45;;;;;;;14.43;10.00;;;18.40;1.00;;;;;;4939752;28;20189;-83
2022/08/21 04:12:13;;;;;;;14.30;9.93;;;18.40;1.00;;;;;;4935744;29;20561;-85
2022/08/21 04:14:41;;;;;;;19.20;10.03;;;18.30;1.00;;;;;;4942069;29;20196;-87
2022/08/21 04:17:08;;;;;;;13.53;10.13;;;18.30;1.00;;;;;;4946959;29;20207;-83
2022/08/21 04:19:35;;;;;;;47.37;11.80;;;18.30;1.00;;;;;;4937516;29;20193;-83
2022/08/21 04:22:02;;;;;;;13.77;10.30;;;18.30;1.00;;;;;;4938040;29;20589;-87
2022/08/21 04:24:29;;;;;;;13.73;10.13;;;18.30;1.00;;;;;;4937744;29;20200;-84
2022/08/21 04:26:56;;;;;;;14.33;10.63;;;18.30;1.00;;;;;;4937168;29;20217;-84
2022/08/21 04:29:25;;;;;;;13.63;10.10;;;18.20;1.00;;;;;;4928593;29;20200;-83
2022/08/21 04:31:52;;;;;;;13.20;9.57;;;18.20;99.90;;;;;;4933229;29;20652;-85
2022/08/21 04:34:19;;;;;;;13.57;10.23;;;18.20;99.90;;;;;;4937571;29;20599;-83
2022/08/21 04:36:46;;;;;;;13.47;9.97;;;18.20;99.90;;;;;;4937028;29;20209;-83
2022/08/21 04:39:13;;;;;;;13.20;10.20;;;18.20;99.90;;;;;;4933722;29;20190;-86
2022/08/21 04:44:32;;;;;;;13.47;9.73;;;18.20;99.90;;;;;;4939494;29;20200;-83
2022/08/21 04:54:02;;;;;;;13.07;9.63;;;18.20;1.00;;;;;;4915506;29;20207;-84
2022/08/21 04:56:32;;;;;;;12.93;9.50;;;18.20;1.00;;;;;;4928440;29;20217;-84
2022/08/21 04:59:03;;;;;;;13.43;9.43;;;18.20;1.00;;;;;;4934437;29;20279;-83
2022/08/21 05:01:44;;;;;;;12.53;9.23;;;18.30;1.00;;;;;;4943538;29;20259;-84
2022/08/21 05:04:15;;;;;;;12.70;10.23;;;18.20;1.00;;;;;;4926871;29;20623;-82
2022/08/21 05:06:47;;;;;;;12.73;9.50;;;18.20;99.90;;;;;;4927847;29;20208;-85
2022/08/21 05:09:16;;;;;;;12.67;9.27;;;18.20;80.90;;;;;;4924260;29;20546;-84
2022/08/21 05:11:43;;;;;;;12.43;9.23;;;18.20;99.90;;;;;;4932535;29;20189;-84
2022/08/21 05:14:15;;;;;;;12.63;10.30;;;18.30;99.90;;;;;;4928315;29;20204;-85
2022/08/21 05:16:45;;;;;;;12.60;10.47;;;18.30;99.90;;;;;;4956336;29;20180;-85
2022/08/21 05:19:14;;;;;;;12.70;10.33;;;18.30;1.00;;;;;;4954143;29;20201;-81
2022/08/21 05:22:01;;;;;;;12.53;9.27;;;18.30;1.00;;;;;;4948771;28;20276;-82
2022/08/21 05:24:37;;;;;;;12.93;10.73;;;18.30;99.90;;;;;;4942470;29;20203;-86
2022/08/21 05:27:11;;;;;;;13.00;9.67;;;18.20;92.30;;;;;;4948547;29;20200;-86
2022/08/21 05:29:41;;;;;;;12.87;9.30;;;18.30;1.00;;;;;;4944830;29;20194;-84
2022/08/21 05:32:10;;;;;;;13.53;10.27;;;18.30;99.90;;;;;;4935863;29;20256;-84
2022/08/21 05:34:37;;;;;;;12.73;10.47;;;18.30;99.90;;;;;;4936617;29;20195;-85
2022/08/21 05:37:06;;;;;;;12.73;10.70;;;18.30;1.00;;;;;;4936278;29;20229;-84
2022/08/21 05:39:34;;;;;;;12.47;10.47;;;18.30;1.00;;;;;;4936286;29;20285;-84
2022/08/21 05:42:01;;;;;;;13.87;11.53;;;18.30;99.90;;;;;;4936070;29;20204;-85
2022/08/21 05:44:28;;;;;;;25.23;11.00;;;18.40;99.90;;;;;;4949144;29;20703;-84
2022/08/21 05:46:55;;;;;;;12.57;10.53;;;18.30;99.90;;;;;;4935620;29;20459;-85
2022/08/21 05:49:22;;;;;;;13.57;11.83;;;18.30;1.00;;;;;;4934937;29;20200;-87
2022/08/21 05:51:49;;;;;;;12.60;11.20;;;18.40;1.00;;;;;;4941527;29;20196;-86
2022/08/21 05:54:18;;;;;;;13.07;11.00;;;18.50;1.00;;;;;;4935758;29;20640;-84
2022/08/21 05:56:59;;;;;;;12.37;10.83;;;18.50;1.00;;;;;;4934990;29;20205;-88
2022/08/21 05:59:33;;;;;;;12.77;11.33;;;18.60;1.00;;;;;;4939423;29;20197;-86
2022/08/21 06:02:08;;;;;;;12.73;11.20;;;18.60;1.00;;;;;;4947367;29;20193;-88
2022/08/21 06:04:50;;;;;;;12.90;11.53;;;18.60;1.00;;;;;;4942627;29;20220;-82
2022/08/21 06:07:26;;;;;;;12.43;10.87;;;18.70;99.90;;;;;;4928115;29;20228;-83
2022/08/21 06:10:14;;;;;;;12.20;10.60;;;18.70;1.00;;;;;;4942100;29;20231;-85
2022/08/21 06:12:46;;;;;;;13.50;11.70;;;18.80;99.90;;;;;;4908993;29;20272;-85
2022/08/21 06:15:16;;;;;;;12.53;10.77;;;18.80;1.00;;;;;;4965452;29;20203;-86
2022/08/21 06:18:01;;;;;;;12.40;10.87;;;18.80;99.90;;;;;;4956549;29;20193;-89
2022/08/21 06:20:28;;;;;;;12.23;10.57;;;18.90;1.00;;;;;;4937029;29;20639;-87
2022/08/21 06:22:55;;;;;;;13.73;11.10;;;18.90;1.00;;;;;;4935516;29;20244;-87
2022/08/21 06:25:24;;;;;;;13.03;11.17;;;18.90;1.00;;;;;;4935035;29;20549;-87
2022/08/21 06:27:52;;;;;;;12.93;11.23;;;18.90;99.90;;;;;;4930553;29;20218;-85
2022/08/21 06:30:19;;;;;;;12.53;10.40;;;18.90;99.90;;;;;;4924269;29;20644;-86
2022/08/21 06:32:47;;;;;;;12.90;10.67;;;18.90;1.00;;;;;;4926042;29;20186;-90
2022/08/21 06:35:18;;;;;;;12.80;10.67;;;19.00;1.00;;;;;;4938457;29;20222;-89
2022/08/21 06:37:53;;;;;;;13.20;10.63;;;19.00;1.00;;;;;;4944410;29;20235;-91
2022/08/21 06:40:20;;;;;;;16.53;12.67;;;19.00;99.90;;;;;;4944956;29;20205;-86
2022/08/21 06:42:49;;;;;;;17.30;12.73;;;19.00;1.00;;;;;;4930568;29;20192;-87
2022/08/21 06:45:17;;;;;;;13.77;11.37;;;19.10;1.00;;;;;;4941706;29;20597;-86
2022/08/21 06:47:44;;;;;;;13.50;10.80;;;19.10;1.00;;;;;;4920154;29;20300;-86
2022/08/21 06:50:13;;;;;;;27.63;14.17;;;19.20;1.00;;;;;;4927362;29;20249;-90
2022/08/21 06:53:06;;;;;;;15.17;11.37;;;19.20;1.00;;;;;;4939876;29;20217;-91
2022/08/21 06:55:34;;;;;;;25.93;13.77;;;19.20;1.00;;;;;;4930498;29;20658;-86
2022/08/21 06:58:02;;;;;;;14.60;11.43;;;19.30;1.00;;;;;;4930133;29;20212;-85
2022/08/21 07:00:30;;;;;;;15.80;11.10;;;19.30;99.90;;;;;;4930161;29;20201;-87
2022/08/21 07:02:58;;;;;;;17.43;11.30;;;19.30;1.00;;;;;;4917120;29;20196;-86
2022/08/21 07:05:26;;;;;;;14.63;11.50;;;19.40;1.00;;;;;;4917164;29;20194;-87
2022/08/21 07:07:53;;;;;;;16.03;13.33;;;19.40;1.00;;;;;;4915612;29;20624;-87
2022/08/21 07:10:24;;;;;;;23.13;13.43;;;19.40;1.00;;;;;;4940254;29;20237;-90
2022/08/21 07:12:52;;;;;;;13.83;11.40;;;19.40;1.00;;;;;;4923785;29;20190;-88
2022/08/21 07:15:20;;;;;;;22.77;16.57;;;19.30;1.00;;;;;;4920745;29;20190;-86
2022/08/21 07:17:47;;;;;;;13.13;10.47;;;19.40;1.00;;;;;;4925419;29;20181;-86
2022/08/21 07:20:14;;;;;;;23.93;15.23;;;19.40;1.00;;;;;;4934845;29;20197;-86
2022/08/21 07:22:42;;;;;;;16.47;11.97;;;19.50;1.00;;;;;;4935117;29;20196;-85
2022/08/21 07:25:09;;;;;;;29.00;15.47;;;19.50;1.00;;;;;;4935145;29;20196;-87
2022/08/21 07:27:37;;;;;;;17.60;12.17;;;19.60;1.00;;;;;;4934932;29;20224;-85
2022/08/21 07:30:04;;;;;;;16.07;11.97;;;19.60;1.00;;;;;;4921768;29;20198;-86
2022/08/21 07:32:33;;;;;;;17.20;11.33;;;19.60;1.00;;;;;;4935277;29;20193;-85
2022/08/21 07:35:00;;;;;;;14.67;11.73;;;19.60;99.90;;;;;;4934896;29;20188;-86
2022/08/21 07:37:27;;;;;;;18.00;13.33;;;19.60;99.90;;;;;;4934867;29;20784;-83
2022/08/21 07:39:54;;;;;;;13.73;11.20;;;19.60;40.00;;;;;;4934872;29;20212;-88
2022/08/21 07:42:21;;;;;;;16.93;11.20;;;19.50;99.90;;;;;;4945991;29;20204;-84
2022/08/21 07:44:48;;;;;;;15.30;11.43;;;19.50;1.00;;;;;;4927947;29;20648;-84
2022/08/21 07:47:15;;;;;;;12.90;10.30;;;19.40;99.90;;;;;;4938203;29;20225;-84
2022/08/21 07:49:44;;;;;;;14.17;11.17;;;19.40;1.00;;;;;;4946664;29;20192;-85
2022/08/21 07:52:17;;;;;;;14.47;10.97;;;19.40;1.00;;;;;;4950822;29;20187;-90
2022/08/21 07:54:44;;;;;;;15.13;12.23;;;19.50;75.40;;;;;;4940575;29;20291;-88
2022/08/21 07:57:11;;;;;;;22.23;13.43;;;19.60;99.90;;;;;;4934624;29;20237;-86
2022/08/21 07:59:38;;;;;;;13.07;10.70;;;19.60;99.90;;;;;;4937419;29;20252;-87
2022/08/21 08:02:05;;;;;;;;;;;19.80;99.90;;;;;;4937910;29;20196;-85
2022/08/21 08:04:32;;;;;;;;;;;19.80;32.90;;;;;;4935147;29;20100;-87
2022/08/21 08:07:00;;;;;;;13.30;11.37;;;19.90;99.90;;;;;;4941739;29;20382;-86
2022/08/21 08:09:27;;;;;;;14.30;11.33;;;20.00;99.90;;;;;;4933232;29;20717;-85
2022/08/21 08:11:54;;;;;;;19.63;14.53;;;20.10;1.00;;;;;;4937153;29;20200;-88
2022/08/21 08:14:22;;;;;;;14.97;12.87;;;20.10;1.00;;;;;;4941638;29;20197;-85
2022/08/21 08:16:49;;;;;;;14.27;12.50;;;20.20;99.90;;;;;;4944045;29;20196;-85
2022/08/21 08:19:16;;;;;;;13.20;11.90;;;20.20;99.90;;;;;;4919158;29;20205;-88
2022/08/21 08:21:43;;;;;;;11.53;9.97;;;20.20;1.00;;;;;;4919120;29;20683;-86
2022/08/21 08:24:11;;;;;;;12.63;11.13;;;20.20;1.00;;;;;;4923854;29;20193;-86
2022/08/21 08:26:38;;;;;;;11.73;10.67;;;20.30;99.90;;;;;;4938084;29;20256;-86
2022/08/21 08:29:05;;;;;;;13.07;11.87;;;20.30;99.90;;;;;;4926836;29;20193;-85
2022/08/21 08:31:33;;;;;;;12.03;10.93;;;20.30;1.00;;;;;;4933846;29;20199;-89
2022/08/21 08:34:00;;;;;;;12.17;11.07;;;20.30;1.00;;;;;;4932575;29;20205;-85
2022/08/21 08:36:34;;;;;;;13.23;10.97;;;20.30;1.00;;;;;;4934035;29;20611;-86
2022/08/21 08:39:01;;;;;;;10.70;9.67;;;20.30;1.00;;;;;;4933458;29;20216;-85
2022/08/21 08:41:31;;;;;;;12.87;11.57;;;20.30;31.90;;;;;;4925779;29;20241;-85
2022/08/21 08:44:04;;;;;;;12.77;11.50;;;20.30;1.00;;;;;;4933919;29;20189;-85
2022/08/21 08:46:36;;;;;;;11.63;10.53;;;20.40;99.90;;;;;;4931644;29;20328;-92
2022/08/21 08:49:09;;;;;;;12.97;11.67;;;20.40;99.90;;;;;;4929839;29;20253;-85
2022/08/21 08:51:41;;;;;;;11.57;10.40;;;20.40;1.00;;;;;;4931063;29;20668;-87
2022/08/21 08:54:13;;;;;;;12.50;11.37;;;20.40;1.00;;;;;;4936015;29;20189;-85
2022/08/21 08:56:42;;;;;;;12.43;11.33;;;20.40;1.00;;;;;;4928725;29;20197;-84
2022/08/21 08:59:16;;;;;;;11.83;10.73;;;20.40;1.00;;;;;;4928960;29;20211;-86
2022/08/21 09:01:43;;;;;;;11.50;10.47;;;20.40;99.90;;;;;;4937887;29;20196;-88
2022/08/21 09:04:13;;;;;;;11.57;10.47;;;20.40;99.90;;;;;;4936018;29;20205;-87
2022/08/21 09:06:54;;;;;;;11.50;10.47;;;20.40;99.90;;;;;;4936212;29;20193;-86
2022/08/21 09:09:35;;;;;;;12.93;11.17;;;20.50;98.20;;;;;;4940449;29;20336;-88
2022/08/21 09:12:10;;;;;;;12.73;11.63;;;20.50;99.90;;;;;;4947136;29;20189;-84
2022/08/21 09:14:55;;;;;;;12.53;11.33;;;20.60;99.90;;;;;;4942668;29;20184;-86
2022/08/21 09:17:37;;;;;;;11.57;10.53;;;20.60;1.00;;;;;;4931604;29;20193;-84
2022/08/21 09:20:19;;;;;;;13.77;12.43;;;20.60;63.50;;;;;;4918786;29;20199;-85
2022/08/21 09:22:59;;;;;;;13.50;11.00;;;20.60;1.00;;;;;;4935463;29;20552;-87
2022/08/21 09:25:28;;;;;;;13.77;12.50;;;20.70;1.00;;;;;;4931323;29;20185;-88
2022/08/21 09:27:57;;;;;;;11.53;10.47;;;20.70;1.00;;;;;;4925967;29;20574;-87
2022/08/21 09:30:28;;;;;;;12.63;11.50;;;20.70;1.00;;;;;;4926376;29;20195;-85
2022/08/21 09:32:55;;;;;;;12.10;11.00;;;20.70;1.00;;;;;;4935648;29;20193;-86
2022/08/21 09:35:23;;;;;;;13.23;12.13;;;20.80;1.00;;;;;;4932560;29;20201;-86
2022/08/21 09:37:54;;;;;;;12.80;11.60;;;20.90;1.00;;;;;;4916417;29;20281;-86
2022/08/21 09:40:37;;;;;;;13.73;12.37;;;21.00;1.00;;;;;;4931118;29;20197;-86
2022/08/21 09:43:16;;;;;;;12.93;11.83;;;21.10;1.00;;;;;;4935009;29;20196;-85
2022/08/21 09:45:46;;;;;;;16.17;14.77;;;21.20;1.00;;;;;;4943058;29;20240;-87
2022/08/21 09:48:15;;;;;;;13.53;12.33;;;21.30;1.00;;;;;;4934857;29;20221;-84
2022/08/21 09:50:43;;;;;;;11.97;10.87;;;21.40;1.00;;;;;;4930464;29;20197;-87
2022/08/21 09:53:19;;;;;;;11.93;10.83;;;21.40;99.90;;;;;;4917706;29;20197;-86
2022/08/21 10:00:05;;;;;;;12.03;10.93;;;21.60;99.90;;;;;;4933689;29;20192;-87
2022/08/21 10:09:33;;;;;;;12.53;11.30;;;21.60;99.90;;;;;;4852404;29;20227;-88
2022/08/21 10:12:10;;;;;;;19.07;12.00;;;21.50;99.90;;;;;;4889811;29;20231;-84
2022/08/21 10:18:44;;;;;;;12.07;10.73;;;21.50;1.00;;;;;;4906491;29;20202;-87
2022/08/21 10:21:45;;;;;;;11.33;10.27;;;21.50;1.00;;;;;;4837261;29;20191;-88
2022/08/21 10:24:56;;;;;;;12.23;11.13;;;21.50;1.00;;;;;;4788398;29;20213;-89
2022/08/21 10:27:31;;;;;;;12.20;11.07;;;21.50;1.00;;;;;;4913918;29;20216;-84
2022/08/21 10:30:15;;;;;;;12.07;10.90;;;21.50;1.00;;;;;;4933613;29;20192;-88
2022/08/21 10:36:21;;;;;;;12.10;11.00;;;21.50;1.00;;;;;;4932049;29;20252;-86
2022/08/21 10:38:59;;;;;;;12.43;11.30;;;21.60;1.00;;;;;;4929545;29;20221;-85
2022/08/21 10:42:17;;;;;;;12.63;11.50;;;21.60;1.00;;;;;;4930896;29;20208;-88
2022/08/21 10:44:55;;;;;;;11.50;10.47;;;21.60;1.00;;;;;;4948164;29;20224;-85
2022/08/21 10:47:42;;;;;;;10.80;9.83;;;21.60;99.90;;;;;;4934532;29;20256;-90
2022/08/21 10:50:21;;;;;;;12.90;11.77;;;21.60;1.00;;;;;;4934346;29;20188;-87
2022/08/21 10:53:16;;;;;;;11.83;10.77;;;21.70;1.00;;;;;;4935890;29;20268;-86
2022/08/21 10:55:49;;;;;;;13.03;11.63;;;21.70;1.00;;;;;;4929770;29;20197;-88
2022/08/21 10:58:24;;;;;;;11.57;10.47;;;21.70;1.00;;;;;;4927815;29;20193;-86
2022/08/21 11:00:56;;;;;;;12.23;10.97;;;21.70;99.90;;;;;;4929776;29;20185;-85
2022/08/21 11:03:44;;;;;;;13.40;12.10;;;21.60;1.00;;;;;;4942930;29;20193;-86
2022/08/21 11:06:17;;;;;;;11.97;10.93;;;21.60;99.90;;;;;;4929839;29;20185;-85
2022/08/21 11:08:59;;;;;;;13.20;12.10;;;21.60;1.00;;;;;;4939995;29;20205;-86
2022/08/21 11:11:30;;;;;;;12.77;11.63;;;21.60;89.20;;;;;;4932437;29;20185;-86
2022/08/21 11:14:02;;;;;;;12.77;11.63;;;21.60;16.00;;;;;;4931203;29;20189;-86
2022/08/21 11:16:37;;;;;;;11.93;10.80;;;21.60;1.00;;;;;;4933234;29;20185;-86
2022/08/21 11:19:10;;;;;;;13.83;12.57;;;21.70;1.00;;;;;;4932306;29;20548;-83
2022/08/21 11:21:43;;;;;;;12.47;11.27;;;21.60;1.00;;;;;;4940028;29;20219;-83
2022/08/21 11:24:25;;;;;;;13.43;12.23;;;21.50;1.00;;;;;;4937088;29;20192;-85
2022/08/21 11:27:00;;;;;;;13.63;12.37;;;21.60;1.00;;;;;;4936279;29;20271;-84
2022/08/21 11:29:32;;;;;;;13.30;12.03;;;21.60;1.00;;;;;;4931264;29;20265;-85
2022/08/21 11:32:24;;;;;;;12.40;11.30;;;21.60;1.00;;;;;;4936210;29;20274;-83
2022/08/21 11:35:01;;;;;;;12.53;11.37;;;21.60;1.00;;;;;;4935577;29;20185;-88
2022/08/21 11:37:47;;;;;;;13.23;11.70;;;21.70;1.00;;;;;;4937698;29;20242;-86
2022/08/21 11:40:48;;;;;;;13.23;11.93;;;21.70;1.00;;;;;;4935195;29;20197;-83
2022/08/21 11:43:24;;;;;;;13.73;12.33;;;21.70;1.00;;;;;;4936649;29;20180;-84
2022/08/21 11:45:55;;;;;;;13.50;12.23;;;21.70;99.90;;;;;;4936327;29;20248;-84
2022/08/21 11:48:58;;;;;;;15.13;12.63;;;21.60;99.90;;;;;;4938343;29;20770;-88
2022/08/21 11:51:39;;;;;;;11.63;10.53;;;21.60;99.90;;;;;;4933128;29;20196;-83
2022/08/21 11:54:17;;;;;;;11.53;10.47;;;21.50;1.00;;;;;;4937456;29;20196;-86
2022/08/21 11:56:49;;;;;;;11.33;10.17;;;21.50;99.90;;;;;;4931838;29;20189;-84
2022/08/21 12:02:14;;;;;;;13.87;12.13;;;21.40;99.90;;;;;;4935196;29;20541;-84
2022/08/21 12:04:48;;;;;;;11.97;10.80;;;21.40;99.90;;;;;;4937047;29;20195;-82
2022/08/21 12:07:25;;;;;;;11.30;9.47;;;21.40;1.00;;;;;;4937574;29;20217;-90
2022/08/21 12:09:54;;;;;;;12.00;10.67;;;21.30;1.00;;;;;;4932234;29;20221;-83
2022/08/21 12:12:28;;;;;;;15.10;12.13;;;21.30;1.00;;;;;;4934038;29;20190;-84
2022/08/21 12:15:30;;;;;;;13.83;12.47;;;21.30;1.00;;;;;;4935786;29;20517;-82
2022/08/21 12:18:02;;;;;;;12.73;11.47;;;21.30;1.00;;;;;;4935276;29;20189;-84
2022/08/21 12:20:42;;;;;;;12.40;11.37;;;21.30;1.00;;;;;;4936799;29;20193;-85
2022/08/21 12:23:30;;;;;;;14.00;12.47;;;21.30;99.90;;;;;;4944431;29;20189;-90
2022/08/21 12:26:21;;;;;;;12.40;11.33;;;21.20;99.90;;;;;;4956517;29;20197;-90
2022/08/21 12:28:49;;;;;;;13.73;12.47;;;21.20;99.90;;;;;;4947994;29;20213;-88
2022/08/21 12:31:25;;;;;;;13.60;12.07;;;21.20;1.00;;;;;;4950731;29;20208;-86
2022/08/21 12:33:58;;;;;;;13.40;12.27;;;21.20;99.90;;;;;;4930253;29;20779;-86
2022/08/21 12:36:30;;;;;;;13.93;12.73;;;21.30;99.90;;;;;;4936340;29;20535;-85
2022/08/21 12:39:01;;;;;;;12.60;11.57;;;21.30;99.90;;;;;;4919709;29;20194;-84
2022/08/21 12:41:32;;;;;;;13.47;12.13;;;21.40;1.00;;;;;;4921495;29;20208;-83
2022/08/21 12:44:02;;;;;;;12.70;11.53;;;21.40;99.90;;;;;;4935954;29;20193;-82
2022/08/21 12:46:35;;;;;;;13.60;12.37;;;21.50;99.90;;;;;;4936613;29;20196;-82
2022/08/21 12:49:13;;;;;;;12.83;11.60;;;21.60;1.00;;;;;;4933798;29;20242;-85
2022/08/21 12:51:53;;;;;;;11.50;10.50;;;21.70;99.90;;;;;;4933621;29;20216;-85
2022/08/21 12:54:27;;;;;;;12.13;11.00;;;21.80;1.00;;;;;;4919669;29;20194;-87
2022/08/21 12:56:59;;;;;;;13.33;12.17;;;22.00;1.00;;;;;;4927088;29;20193;-85
2022/08/21 12:59:27;;;;;;;13.97;12.63;;;22.10;1.00;;;;;;4927042;29;20193;-85
2022/08/21 13:01:55;;;;;;;12.27;11.07;;;22.20;1.00;;;;;;4919561;29;20250;-87
2022/08/21 13:04:34;;;;;;;13.57;12.07;;;22.30;1.00;;;;;;4929994;29;20197;-82
2022/08/21 13:07:02;;;;;;;13.10;11.60;;;22.40;1.00;;;;;;4931245;29;20188;-84
2022/08/21 13:09:31;;;;;;;13.97;11.77;;;22.50;99.90;;;;;;4926037;29;20213;-83
2022/08/21 13:11:59;;;;;;;12.50;11.30;;;22.60;99.90;;;;;;4922758;29;20190;-86
2022/08/21 13:14:31;;;;;;;12.47;11.13;;;22.60;99.90;;;;;;4914702;29;20560;-82
2022/08/21 13:17:00;;;;;;;13.13;11.80;;;22.70;99.90;;;;;;4927806;29;20188;-83
2022/08/21 13:19:29;;;;;;;12.40;11.03;;;22.80;99.90;;;;;;4926113;29;20197;-83
2022/08/21 13:21:57;;;;;;;14.43;10.20;;;22.80;68.70;;;;;;4920636;29;20223;-82
2022/08/21 13:24:26;;;;;;;11.73;10.27;;;22.80;1.00;;;;;;4932160;29;20656;-83
2022/08/21 13:26:54;;;;;;;12.03;10.57;;;22.80;28.70;;;;;;4922592;29;20199;-83
2022/08/21 13:29:24;;;;;;;14.57;10.83;;;22.80;99.90;;;;;;4931058;29;20221;-84